Time;durP1;ratioP1;P1;durP2;ratioP2;P2;SDS_P1;SDS_P2;PMS_P1;PMS_P2;Temp;Humidity;BMP_temperature;BMP_pressure;BME280_temperature;BME280_humidity;BME280_pressure;Samples;Min_cycle;Max_cycle;Signal;HPM_P1;HPM_P2
2023/08/05 00:01:26;;;;;;;0.50;0.50;;;15.40;99.90;;;;;;5043547;28;20049;-78
2023/08/05 00:03:51;;;;;;;0.20;0.20;;;15.40;99.90;;;;;;5029039;28;20036;-80
2023/08/05 00:06:18;;;;;;;;;;;15.40;99.90;;;;;;5013475;28;20052;-80
2023/08/05 00:08:44;;;;;;;0.75;0.75;;;15.40;99.90;;;;;;5029612;28;19920;-80
2023/08/05 00:11:10;;;;;;;;;;;15.30;99.90;;;;;;5044725;28;20043;-81
2023/08/05 00:13:35;;;;;;;0.30;0.30;;;15.30;99.90;;;;;;5012204;28;20064;-79
2023/08/05 00:16:02;;;;;;;0.70;0.70;;;15.30;99.90;;;;;;5040580;28;20037;-79
2023/08/05 00:18:28;;;;;;;0.30;0.30;;;15.30;99.90;;;;;;5031275;28;20087;-81
2023/08/05 00:20:53;;;;;;;0.57;0.57;;;15.30;99.90;;;;;;5047454;28;20052;-81
2023/08/05 00:23:19;;;;;;;0.32;0.32;;;15.30;99.90;;;;;;5027158;28;20045;-80
2023/08/05 00:25:46;;;;;;;;;;;15.30;99.90;;;;;;5025861;28;20471;-79
2023/08/05 00:28:12;;;;;;;0.20;0.20;;;15.20;99.90;;;;;;5047323;28;19920;-79
2023/08/05 00:30:38;;;;;;;0.82;0.82;;;15.20;99.90;;;;;;5037185;28;20213;-78
2023/08/05 00:33:03;;;;;;;0.20;0.20;;;15.20;99.90;;;;;;5029942;28;20040;-80
2023/08/05 00:35:29;;;;;;;;;;;15.20;99.90;;;;;;5040365;28;20040;-79
2023/08/05 00:37:55;;;;;;;0.28;0.28;;;15.10;99.90;;;;;;5048636;28;19974;-81
2023/08/05 00:40:20;;;;;;;0.47;0.38;;;15.10;99.90;;;;;;5026526;28;20401;-77
2023/08/05 00:42:46;;;;;;;35.40;2.08;;;15.10;99.90;;;;;;5026281;28;20040;-78
2023/08/05 00:45:12;;;;;;;;;;;15.00;99.90;;;;;;5026423;28;20048;-81
2023/08/05 00:47:43;;;;;;;0.22;0.22;;;15.00;99.90;;;;;;5057943;28;19942;-78
2023/08/05 00:50:12;;;;;;;0.25;0.25;;;14.90;99.90;;;;;;5030501;28;20358;-79
2023/08/05 00:52:40;;;;;;;0.25;0.25;;;14.80;99.90;;;;;;5016870;28;20040;-81
2023/08/05 00:55:06;;;;;;;0.32;0.32;;;14.80;99.90;;;;;;5061135;28;20560;-80
2023/08/05 00:57:33;;;;;;;;;;;14.80;99.90;;;;;;5034800;28;20064;-79
2023/08/05 00:59:58;;;;;;;0.30;0.30;;;14.80;99.90;;;;;;5023547;28;19930;-79
2023/08/05 01:02:24;;;;;;;0.22;0.22;;;14.70;99.90;;;;;;5027749;28;20037;-81
2023/08/05 01:04:50;;;;;;;0.22;0.22;;;14.70;99.90;;;;;;5016632;28;20439;-79
2023/08/05 01:07:19;;;;;;;0.63;0.63;;;14.70;99.90;;;;;;5009929;28;20524;-76
2023/08/05 01:09:45;;;;;;;0.80;0.80;;;14.70;99.90;;;;;;5033835;28;20041;-79
2023/08/05 01:12:12;;;;;;;0.28;0.28;;;14.70;99.90;;;;;;5050088;28;20309;-80
2023/08/05 01:14:37;;;;;;;0.30;0.30;;;14.60;99.90;;;;;;5031829;28;20069;-80
2023/08/05 01:17:07;;;;;;;0.30;0.30;;;14.60;99.90;;;;;;5015031;28;20072;-79
2023/08/05 01:19:35;;;;;;;0.30;0.30;;;14.60;99.90;;;;;;5050228;28;20049;-80
2023/08/05 01:22:41;;;;;;;0.30;0.30;;;14.50;99.90;;;;;;5034499;28;20052;-80
2023/08/05 01:25:43;;;;;;;0.28;0.28;;;14.40;99.90;;;;;;4967600;28;20571;-79
2023/08/05 01:28:09;;;;;;;0.30;0.30;;;14.20;99.90;;;;;;4966022;28;20042;-80
2023/08/05 01:30:37;;;;;;;;;;;14.10;99.90;;;;;;5017421;28;20052;-79
2023/08/05 01:33:03;;;;;;;0.20;0.20;;;13.90;99.90;;;;;;5049884;28;19927;-80
2023/08/05 01:35:29;;;;;;;0.28;0.28;;;13.90;99.90;;;;;;5019514;28;20041;-80
2023/08/05 01:37:55;;;;;;;0.30;0.30;;;13.80;99.90;;;;;;5046092;28;20037;-78
2023/08/05 01:40:21;;;;;;;;;;;13.70;99.90;;;;;;5033773;28;20467;-79
2023/08/05 01:42:46;;;;;;;0.25;0.25;;;13.70;99.90;;;;;;5051560;28;19924;-81
2023/08/05 01:45:13;;;;;;;0.30;0.30;;;13.60;99.90;;;;;;5035388;28;20055;-82
2023/08/05 01:47:39;;;;;;;0.30;0.30;;;13.50;99.90;;;;;;5051862;28;20037;-78
2023/08/05 01:50:09;;;;;;;0.30;0.30;;;13.50;99.90;;;;;;5068158;28;20051;-78
2023/08/05 01:52:35;;;;;;;0.30;0.30;;;13.40;99.90;;;;;;5032381;28;20044;-78
2023/08/05 01:55:00;;;;;;;0.30;0.30;;;13.30;99.90;;;;;;5034356;28;20389;-80
2023/08/05 01:57:26;;;;;;;0.30;0.30;;;13.20;99.90;;;;;;5032960;28;20368;-82
2023/08/05 01:59:52;;;;;;;0.30;0.30;;;13.10;99.90;;;;;;5037936;28;20055;-80
2023/08/05 02:02:17;;;;;;;0.30;0.30;;;13.10;99.90;;;;;;5017940;28;20134;-81
2023/08/05 02:04:43;;;;;;;0.30;0.30;;;12.90;99.90;;;;;;5042613;28;20552;-79
2023/08/05 02:07:09;;;;;;;0.40;0.40;;;13.00;99.90;;;;;;5047578;28;20147;-81
2023/08/05 02:09:34;;;;;;;0.30;0.30;;;13.00;99.90;;;;;;5035976;28;20037;-80
2023/08/05 02:12:01;;;;;;;0.38;0.38;;;12.80;99.90;;;;;;5049504;28;20033;-81
2023/08/05 02:14:27;;;;;;;0.30;0.30;;;12.80;99.90;;;;;;5047995;28;20059;-81
2023/08/05 02:16:53;;;;;;;0.22;0.22;;;12.80;99.90;;;;;;5031000;28;20082;-78
2023/08/05 02:19:21;;;;;;;0.38;0.38;;;12.70;99.90;;;;;;5033787;28;20041;-79
2023/08/05 02:21:48;;;;;;;2.90;0.75;;;12.60;99.90;;;;;;5047759;28;20040;-79
2023/08/05 02:24:13;;;;;;;0.40;0.40;;;12.60;99.90;;;;;;5046341;28;20072;-80
2023/08/05 02:26:43;;;;;;;0.30;0.30;;;12.60;99.90;;;;;;5035950;28;20036;-79
2023/08/05 02:29:11;;;;;;;0.22;0.22;;;12.70;99.90;;;;;;5018467;28;20423;-80
2023/08/05 02:31:37;;;;;;;0.85;0.85;;;12.60;99.90;;;;;;5050484;28;20093;-80
2023/08/05 02:34:03;;;;;;;0.35;0.35;;;12.50;99.90;;;;;;5031285;28;20747;-81
2023/08/05 02:36:28;;;;;;;0.22;0.22;;;12.60;99.90;;;;;;5031400;28;20043;-80
2023/08/05 02:38:54;;;;;;;;;;;12.60;99.90;;;;;;5028893;28;20033;-79
2023/08/05 02:41:20;;;;;;;0.40;0.40;;;12.50;99.90;;;;;;5027267;28;19921;-81
2023/08/05 02:43:46;;;;;;;1.08;0.57;;;12.80;99.90;;;;;;5017041;28;20143;-78
2023/08/05 02:46:11;;;;;;;0.60;0.40;;;12.40;99.90;;;;;;5052217;28;20556;-81
2023/08/05 02:48:37;;;;;;;0.30;0.30;;;12.70;99.90;;;;;;5035886;28;20040;-79
2023/08/05 02:51:03;;;;;;;0.30;0.30;;;12.40;99.90;;;;;;5039131;28;20063;-80
2023/08/05 02:53:28;;;;;;;0.30;0.30;;;12.40;99.90;;;;;;5046033;28;20099;-79
2023/08/05 02:55:54;;;;;;;0.40;0.40;;;12.40;99.90;;;;;;5048219;28;20128;-81
2023/08/05 02:58:20;;;;;;;0.40;0.40;;;12.30;99.90;;;;;;5033549;28;20115;-80
2023/08/05 03:00:49;;;;;;;0.40;0.40;;;12.60;99.90;;;;;;5026145;28;20041;-78
2023/08/05 03:03:17;;;;;;;0.30;0.30;;;12.40;99.90;;;;;;5050056;28;20055;-79
2023/08/05 03:05:43;;;;;;;0.20;0.20;;;12.50;99.90;;;;;;5014511;28;20380;-79
2023/08/05 03:08:10;;;;;;;0.30;0.30;;;12.50;99.90;;;;;;5040461;28;20071;-78
2023/08/05 03:10:40;;;;;;;0.90;0.35;;;12.20;99.90;;;;;;5041613;28;20049;-79
2023/08/05 03:13:07;;;;;;;0.30;0.30;;;12.60;99.90;;;;;;5032357;28;20098;-76
2023/08/05 03:15:36;;;;;;;0.30;0.30;;;12.50;99.90;;;;;;5054472;28;20556;-77
2023/08/05 03:18:01;;;;;;;0.40;0.40;;;12.70;99.90;;;;;;5048716;28;20037;-80
2023/08/05 03:20:31;;;;;;;0.32;0.32;;;12.60;99.90;;;;;;5034257;28;20463;-79
2023/08/05 03:22:57;;;;;;;0.30;0.30;;;12.70;99.90;;;;;;5041065;28;20045;-81
2023/08/05 03:25:29;;;;;;;0.30;0.30;;;12.90;99.90;;;;;;5032627;28;20051;-78
2023/08/05 03:27:56;;;;;;;0.32;0.32;;;12.90;99.90;;;;;;5031825;28;20048;-81
2023/08/05 03:30:21;;;;;;;0.30;0.30;;;13.40;99.90;;;;;;5019413;28;20048;-77
2023/08/05 03:32:48;;;;;;;0.47;0.47;;;12.90;99.90;;;;;;5028302;28;20047;-81
2023/08/05 03:35:14;;;;;;;0.30;0.30;;;12.90;99.90;;;;;;5014150;28;20439;-81
2023/08/05 03:37:39;;;;;;;0.30;0.30;;;13.00;99.90;;;;;;5041458;28;20449;-77
2023/08/05 03:40:06;;;;;;;0.30;0.30;;;13.20;99.90;;;;;;5037522;28;20072;-79
2023/08/05 03:42:31;;;;;;;0.40;0.40;;;13.10;99.90;;;;;;5050156;28;20036;-79
2023/08/05 03:44:58;;;;;;;0.40;0.40;;;13.40;99.90;;;;;;5044588;28;20040;-78
2023/08/05 03:47:24;;;;;;;0.60;0.60;;;13.30;99.90;;;;;;5014897;28;20055;-79
2023/08/05 03:49:50;;;;;;;0.40;0.40;;;13.30;99.90;;;;;;5027702;28;20044;-80
2023/08/05 03:52:15;;;;;;;0.90;0.50;;;13.40;99.90;;;;;;5028491;28;20131;-80
2023/08/05 03:54:41;;;;;;;;;;;13.40;99.90;;;;;;5035864;28;20037;-77
2023/08/05 03:57:08;;;;;;;0.50;0.50;;;13.40;99.90;;;;;;5030606;28;19916;-80
2023/08/05 03:59:40;;;;;;;1.15;0.50;;;13.50;99.90;;;;;;5026048;28;20068;-79
2023/08/05 04:02:07;;;;;;;0.30;0.30;;;13.60;99.90;;;;;;5034307;28;20438;-78
2023/08/05 04:04:32;;;;;;;0.30;0.30;;;13.50;99.90;;;;;;5023709;28;20040;-80
2023/08/05 04:06:58;;;;;;;0.47;0.47;;;13.50;99.90;;;;;;5014661;28;20093;-80
2023/08/05 04:09:25;;;;;;;0.75;0.75;;;13.40;99.90;;;;;;5026005;28;20106;-78
2023/08/05 04:11:51;;;;;;;0.30;0.30;;;13.40;99.90;;;;;;5022676;28;20512;-81
2023/08/05 04:14:20;;;;;;;;;;;13.50;99.90;;;;;;5027356;28;20059;-79
2023/08/05 04:16:47;;;;;;;0.30;0.30;;;13.50;99.90;;;;;;5025833;28;19923;-81
2023/08/05 04:19:17;;;;;;;0.32;0.32;;;13.50;99.90;;;;;;5062979;28;20518;-78
2023/08/05 04:21:47;;;;;;;;;;;13.90;99.90;;;;;;5030047;28;20127;-77
2023/08/05 04:24:13;;;;;;;0.30;0.30;;;13.40;99.90;;;;;;5043622;28;19924;-77
2023/08/05 04:26:40;;;;;;;0.20;0.20;;;13.50;99.90;;;;;;5031213;28;20433;-79
2023/08/05 04:29:06;;;;;;;0.30;0.30;;;13.50;99.90;;;;;;5052529;28;20064;-80
2023/08/05 04:31:32;;;;;;;;;;;13.50;99.90;;;;;;5007125;28;20125;-80
2023/08/05 04:33:58;;;;;;;0.50;0.50;;;13.50;99.90;;;;;;5028030;28;19924;-77
2023/08/05 04:36:30;;;;;;;0.30;0.30;;;13.40;99.90;;;;;;5040072;28;20032;-80
2023/08/05 04:39:02;;;;;;;0.30;0.30;;;13.50;99.90;;;;;;5032558;28;20102;-78
2023/08/05 04:41:28;;;;;;;0.20;0.20;;;13.40;99.90;;;;;;5030870;28;21657;-78
2023/08/05 04:43:54;;;;;;;0.30;0.30;;;13.40;99.90;;;;;;5025152;28;21220;-78
2023/08/05 04:46:22;;;;;;;0.30;0.30;;;13.40;99.90;;;;;;5037431;28;20040;-78
2023/08/05 04:48:47;;;;;;;0.30;0.30;;;13.40;99.90;;;;;;5040907;28;20037;-78
2023/08/05 04:51:13;;;;;;;0.30;0.30;;;13.50;99.90;;;;;;5016973;28;20033;-78
2023/08/05 04:53:39;;;;;;;0.25;0.25;;;13.40;99.90;;;;;;5004943;28;20041;-81
2023/08/05 04:56:04;;;;;;;0.30;0.30;;;13.60;99.90;;;;;;5048356;28;20045;-78
2023/08/05 04:58:31;;;;;;;0.30;0.30;;;13.70;99.90;;;;;;5032345;28;20214;-81
2023/08/05 05:00:56;;;;;;;0.30;0.30;;;14.50;99.90;;;;;;5040103;28;20045;-80
2023/08/05 05:03:22;;;;;;;0.30;0.30;;;14.00;99.90;;;;;;5040813;28;20261;-77
2023/08/05 05:05:48;;;;;;;0.30;0.30;;;14.20;99.90;;;;;;5031104;28;20127;-81
2023/08/05 05:08:14;;;;;;;0.35;0.35;;;14.20;99.90;;;;;;5047378;28;20041;-79
2023/08/05 05:10:48;;;;;;;0.35;0.35;;;14.40;99.90;;;;;;5013841;28;20470;-78
2023/08/05 05:13:14;;;;;;;0.35;0.35;;;14.50;99.90;;;;;;5041927;28;20037;-80
2023/08/05 05:15:40;;;;;;;0.30;0.30;;;14.70;99.90;;;;;;5029008;28;20037;-79
2023/08/05 05:18:07;;;;;;;;;;;14.70;99.90;;;;;;5012278;28;20451;-81
2023/08/05 05:20:33;;;;;;;0.50;0.50;;;14.80;99.90;;;;;;5048660;28;19925;-81
2023/08/05 05:22:59;;;;;;;0.35;0.35;;;14.80;99.90;;;;;;5009347;28;20058;-78
2023/08/05 05:25:25;;;;;;;0.88;0.88;;;14.90;99.90;;;;;;5038981;28;20046;-77
2023/08/05 05:27:57;;;;;;;0.22;0.22;;;14.90;99.90;;;;;;5043207;28;20106;-77
2023/08/05 05:30:23;;;;;;;1.00;1.00;;;15.00;99.90;;;;;;5033662;28;20056;-77
2023/08/05 05:32:49;;;;;;;0.22;0.22;;;15.10;99.90;;;;;;5028942;28;20071;-77
2023/08/05 05:35:15;;;;;;;0.20;0.20;;;15.10;99.90;;;;;;5036461;28;20068;-79
2023/08/05 05:37:41;;;;;;;;;;;15.20;99.90;;;;;;5064432;28;20569;-78
2023/08/05 05:40:08;;;;;;;0.28;0.28;;;15.20;99.90;;;;;;5045846;28;19926;-79
2023/08/05 05:42:35;;;;;;;0.32;0.30;;;15.20;99.90;;;;;;5032002;28;20490;-80
2023/08/05 05:45:01;;;;;;;0.20;0.20;;;15.30;99.90;;;;;;5030784;28;20036;-79
2023/08/05 05:47:27;;;;;;;0.28;0.28;;;15.30;99.90;;;;;;5035162;28;20406;-78
2023/08/05 05:49:55;;;;;;;0.55;0.55;;;15.40;99.90;;;;;;5030685;28;20033;-78
2023/08/05 05:52:22;;;;;;;0.30;0.30;;;15.30;99.90;;;;;;5033294;28;20130;-77
2023/08/05 05:54:49;;;;;;;0.30;0.30;;;15.30;99.90;;;;;;5030975;28;20037;-79
2023/08/05 05:57:15;;;;;;;0.20;0.20;;;15.30;99.90;;;;;;5028679;28;20037;-80
2023/08/05 05:59:42;;;;;;;1.00;1.00;;;15.20;99.90;;;;;;5043790;28;20039;-81
2023/08/05 06:02:08;;;;;;;0.30;0.30;;;15.20;99.90;;;;;;5009137;28;20490;-81
2023/08/05 06:04:36;;;;;;;0.30;0.30;;;15.10;99.90;;;;;;5033397;28;20218;-80
2023/08/05 06:07:02;;;;;;;0.30;0.30;;;15.10;99.90;;;;;;5029958;28;20041;-81
2023/08/05 06:09:29;;;;;;;0.38;0.38;;;15.10;99.90;;;;;;5046598;28;20525;-82
2023/08/05 06:11:55;;;;;;;1.50;1.23;;;14.90;99.90;;;;;;5043483;28;20045;-82
2023/08/05 06:14:21;;;;;;;0.30;0.30;;;15.20;99.90;;;;;;5033566;28;20406;-79
2023/08/05 06:16:47;;;;;;;;;;;15.30;99.90;;;;;;5029113;28;20101;-79
2023/08/05 06:19:12;;;;;;;0.30;0.30;;;15.30;99.90;;;;;;5048426;28;20286;-81
2023/08/05 06:21:38;;;;;;;0.20;0.20;;;15.40;99.90;;;;;;5030713;28;20471;-80
2023/08/05 06:24:04;;;;;;;0.52;0.52;;;15.50;99.90;;;;;;4990653;28;20152;-77
2023/08/05 06:26:30;;;;;;;;;;;15.60;99.90;;;;;;5040398;28;21036;-76
2023/08/05 06:28:56;;;;;;;0.30;0.30;;;15.70;99.90;;;;;;5024541;28;19985;-78
2023/08/05 06:31:23;;;;;;;0.70;0.70;;;15.90;99.90;;;;;;5034253;28;20063;-77
2023/08/05 06:33:52;;;;;;;0.30;0.30;;;16.10;99.90;;;;;;5048842;28;20091;-78
2023/08/05 06:36:17;;;;;;;0.30;0.30;;;16.30;99.90;;;;;;5050110;28;20920;-78
2023/08/05 06:38:43;;;;;;;0.20;0.20;;;16.50;99.90;;;;;;5025549;28;20033;-77
2023/08/05 06:41:09;;;;;;;1.08;1.00;;;16.60;99.90;;;;;;4993856;28;20052;-77
2023/08/05 06:43:34;;;;;;;0.30;0.30;;;16.70;99.90;;;;;;5065009;28;20044;-78
2023/08/05 06:46:00;;;;;;;;;;;16.80;99.90;;;;;;5050045;28;20454;-76
2023/08/05 06:48:26;;;;;;;0.20;0.20;;;16.80;99.90;;;;;;5047566;28;19925;-76
2023/08/05 06:50:51;;;;;;;0.30;0.30;;;16.80;99.90;;;;;;5049000;28;20229;-76
2023/08/05 06:53:17;;;;;;;;;;;16.80;99.90;;;;;;5033937;28;20067;-77
2023/08/05 06:55:43;;;;;;;0.75;0.75;;;16.90;99.90;;;;;;5046329;28;19920;-78
2023/08/05 06:58:09;;;;;;;0.20;0.20;;;17.00;99.90;;;;;;5029846;28;20052;-77
2023/08/05 07:00:34;;;;;;;0.50;0.50;;;17.10;99.90;;;;;;5022427;28;20052;-77
2023/08/05 07:03:01;;;;;;;;;;;17.30;99.90;;;;;;5065395;28;20494;-78
2023/08/05 07:05:29;;;;;;;0.28;0.28;;;17.50;99.90;;;;;;5045842;28;19927;-77
2023/08/05 07:07:54;;;;;;;0.77;0.77;;;17.70;99.90;;;;;;5014525;28;20390;-77
2023/08/05 07:10:20;;;;;;;;;;;17.90;99.90;;;;;;5024750;28;20040;-77
2023/08/05 07:12:46;;;;;;;0.30;0.30;;;18.10;99.90;;;;;;5030459;28;19939;-77
2023/08/05 07:15:13;;;;;;;;;;;18.30;99.90;;;;;;5031573;28;20045;-78
2023/08/05 07:17:39;;;;;;;1.33;1.27;;;18.30;99.90;;;;;;5049529;28;20373;-77
2023/08/05 07:20:05;;;;;;;;;;;18.30;99.90;;;;;;5043038;28;20048;-77
2023/08/05 07:22:31;;;;;;;0.50;0.50;;;18.30;99.90;;;;;;5025558;28;19964;-79
2023/08/05 07:24:57;;;;;;;0.35;0.35;;;18.20;99.90;;;;;;5037087;28;20053;-77
2023/08/05 07:27:24;;;;;;;;;;;18.10;99.90;;;;;;5044751;28;20040;-78
2023/08/05 07:29:49;;;;;;;0.32;0.32;;;18.10;99.90;;;;;;5043314;28;19925;-77
2023/08/05 07:32:15;;;;;;;;;;;18.10;99.90;;;;;;5047732;28;20056;-77
2023/08/05 07:34:42;;;;;;;0.30;0.30;;;18.10;99.90;;;;;;5040554;28;20432;-78
2023/08/05 07:37:09;;;;;;;0.30;0.30;;;18.30;99.90;;;;;;5057452;28;20427;-77
2023/08/05 07:39:35;;;;;;;0.68;0.50;;;18.40;99.90;;;;;;5015306;28;20053;-77
2023/08/05 07:42:05;;;;;;;0.57;0.28;;;18.50;99.90;;;;;;5032587;28;20040;-76
2023/08/05 07:44:32;;;;;;;0.32;0.32;;;18.60;99.90;;;;;;5045663;28;20047;-77
2023/08/05 07:47:01;;;;;;;0.57;0.52;;;18.70;99.90;;;;;;5044095;28;20040;-77
2023/08/05 07:49:27;;;;;;;0.30;0.30;;;18.80;99.90;;;;;;5046735;28;20044;-78
2023/08/05 07:51:53;;;;;;;0.40;0.40;;;18.70;99.90;;;;;;5064358;28;20386;-78
2023/08/05 07:54:24;;;;;;;0.30;0.30;;;18.70;99.90;;;;;;5049009;28;20051;-77
2023/08/05 07:56:49;;;;;;;0.20;0.20;;;18.60;99.90;;;;;;5030103;28;20045;-77
2023/08/05 07:59:17;;;;;;;;;;;18.60;99.90;;;;;;5024778;28;20063;-78
2023/08/05 08:01:45;;;;;;;0.20;0.20;;;18.70;99.90;;;;;;5044462;28;19920;-77
2023/08/05 08:04:12;;;;;;;0.40;0.40;;;18.80;99.90;;;;;;5042565;28;20060;-77
2023/08/05 08:06:38;;;;;;;0.60;0.60;;;18.80;99.90;;;;;;5061550;28;20063;-77
2023/08/05 08:09:04;;;;;;;;;;;18.90;99.90;;;;;;5036350;28;20403;-77
2023/08/05 08:11:30;;;;;;;0.30;0.30;;;19.30;99.90;;;;;;5031161;28;20015;-77
2023/08/05 08:13:55;;;;;;;;;;;19.20;99.90;;;;;;5030233;28;20048;-77
2023/08/05 08:16:21;;;;;;;0.45;0.45;;;19.10;99.90;;;;;;5029244;28;19935;-77
2023/08/05 08:18:46;;;;;;;;;;;19.40;99.90;;;;;;5064158;28;20194;-76
2023/08/05 08:21:12;;;;;;;0.45;0.40;;;19.60;99.90;;;;;;5020056;28;20003;-77
2023/08/05 08:23:38;;;;;;;;;;;19.80;99.90;;;;;;5041885;28;20040;-77
2023/08/05 08:26:04;;;;;;;0.60;0.50;;;19.90;99.90;;;;;;5026564;28;19967;-78
2023/08/05 08:28:29;;;;;;;;;;;19.90;99.90;;;;;;5048658;28;20060;-77
2023/08/05 08:30:58;;;;;;;0.20;0.20;;;19.80;99.90;;;;;;5029510;28;19927;-77
2023/08/05 08:33:25;;;;;;;0.38;0.38;;;19.70;99.90;;;;;;5058167;28;20052;-76
2023/08/05 08:35:52;;;;;;;0.20;0.20;;;19.70;99.90;;;;;;5026963;28;20033;-77
2023/08/05 08:38:19;;;;;;;2.65;0.77;;;19.80;99.90;;;;;;5046530;28;20101;-76
2023/08/05 08:40:49;;;;;;;0.20;0.20;;;20.00;99.90;;;;;;5044583;28;20450;-78
2023/08/05 08:43:19;;;;;;;0.40;0.40;;;20.00;99.90;;;;;;5043813;28;20044;-78
2023/08/05 08:45:50;;;;;;;0.35;0.35;;;20.00;99.90;;;;;;5043722;28;20506;-77
2023/08/05 08:48:24;;;;;;;0.80;0.65;;;20.00;99.90;;;;;;5032456;28;20129;-77
2023/08/05 08:50:52;;;;;;;0.30;0.30;;;20.00;99.90;;;;;;5062553;28;20394;-77
2023/08/05 08:53:20;;;;;;;0.20;0.20;;;20.00;99.90;;;;;;5030985;28;20045;-78
2023/08/05 08:55:52;;;;;;;0.20;0.20;;;20.20;99.90;;;;;;5042957;28;20063;-77
2023/08/05 08:58:18;;;;;;;0.10;0.10;;;20.30;99.90;;;;;;5022120;28;20049;-76
2023/08/05 09:00:45;;;;;;;0.20;0.20;;;20.30;99.90;;;;;;5030906;28;20394;-78
2023/08/05 09:03:13;;;;;;;0.20;0.20;;;20.40;99.90;;;;;;5037041;28;20045;-78
2023/08/05 09:05:45;;;;;;;0.30;0.30;;;20.50;99.90;;;;;;5043878;28;20052;-76
2023/08/05 09:08:12;;;;;;;0.30;0.30;;;20.90;99.90;;;;;;5042750;28;20131;-77
2023/08/05 09:10:38;;;;;;;0.30;0.30;;;21.20;99.90;;;;;;5040186;28;20119;-78
2023/08/05 09:13:07;;;;;;;0.20;0.20;;;21.30;99.90;;;;;;5027147;28;20419;-77
2023/08/05 09:15:35;;;;;;;0.30;0.30;;;21.30;99.90;;;;;;5044712;28;20136;-77
2023/08/05 09:18:03;;;;;;;0.20;0.20;;;21.20;99.90;;;;;;5046430;28;20128;-76
2023/08/05 09:20:31;;;;;;;0.40;0.40;;;21.00;99.90;;;;;;5028806;28;20083;-78
2023/08/05 09:23:00;;;;;;;0.73;0.73;;;20.80;99.90;;;;;;5045280;28;20324;-77
2023/08/05 09:25:27;;;;;;;0.40;0.40;;;20.60;99.90;;;;;;5012718;28;20079;-77
2023/08/05 09:27:53;;;;;;;0.20;0.20;;;20.60;99.90;;;;;;5043393;28;20052;-77
2023/08/05 09:30:21;;;;;;;0.20;0.20;;;20.50;99.90;;;;;;5032617;28;20051;-78
2023/08/05 09:32:47;;;;;;;0.20;0.20;;;20.40;99.90;;;;;;5048448;28;20047;-77
2023/08/05 09:35:16;;;;;;;0.20;0.20;;;20.30;99.90;;;;;;5041635;28;20146;-78
2023/08/05 09:37:49;;;;;;;0.30;0.30;;;20.40;99.90;;;;;;5047543;28;20110;-77
2023/08/05 09:40:22;;;;;;;9.75;1.17;;;20.50;99.90;;;;;;5046293;28;20044;-77
2023/08/05 09:42:50;;;;;;;0.20;0.20;;;20.60;99.90;;;;;;5047568;28;20046;-78
2023/08/05 09:45:17;;;;;;;0.57;0.57;;;20.70;99.90;;;;;;5045427;28;20099;-77
2023/08/05 09:47:43;;;;;;;1.95;0.40;;;20.80;99.90;;;;;;5048356;28;20032;-78
2023/08/05 09:50:14;;;;;;;0.63;0.63;;;20.80;99.90;;;;;;5067950;28;20063;-77
2023/08/05 09:52:40;;;;;;;0.70;0.68;;;20.50;99.90;;;;;;5066193;28;20102;-77
2023/08/05 09:55:09;;;;;;;0.20;0.20;;;20.50;99.90;;;;;;5063866;28;20033;-76
2023/08/05 09:57:36;;;;;;;0.55;0.55;;;20.60;99.90;;;;;;5047787;28;20468;-77
2023/08/05 10:00:08;;;;;;;0.20;0.20;;;20.60;99.90;;;;;;5033291;28;20040;-77
2023/08/05 10:02:35;;;;;;;0.20;0.20;;;20.70;99.90;;;;;;5026544;28;20131;-77
2023/08/05 10:05:02;;;;;;;0.63;0.63;;;20.90;99.90;;;;;;5048246;28;20051;-77
2023/08/05 10:07:28;;;;;;;0.22;0.22;;;21.00;99.90;;;;;;5042925;28;20063;-77
2023/08/05 10:09:55;;;;;;;0.30;0.30;;;21.10;99.90;;;;;;5032988;28;20486;-78
2023/08/05 10:12:25;;;;;;;0.70;0.70;;;21.20;99.90;;;;;;5042356;28;20498;-78
2023/08/05 10:14:54;;;;;;;0.20;0.20;;;21.30;99.90;;;;;;5017911;28;20040;-78
2023/08/05 10:17:21;;;;;;;0.10;0.10;;;21.30;99.90;;;;;;5028565;28;20052;-77
2023/08/05 10:19:49;;;;;;;0.88;0.88;;;21.20;99.90;;;;;;5046938;28;20352;-77
2023/08/05 10:22:24;;;;;;;0.30;0.30;;;21.00;99.90;;;;;;5047882;28;20127;-77
2023/08/05 10:24:56;;;;;;;0.20;0.20;;;21.00;99.90;;;;;;5063303;28;20112;-76
2023/08/05 10:27:44;;;;;;;0.40;0.40;;;21.00;99.90;;;;;;5047982;28;20459;-77
2023/08/05 10:30:14;;;;;;;0.38;0.38;;;21.00;99.90;;;;;;5033313;28;20079;-77
2023/08/05 10:32:58;;;;;;;0.73;0.73;;;21.00;99.90;;;;;;5030600;28;20506;-76
2023/08/05 10:35:39;;;;;;;0.63;0.50;;;21.00;99.90;;;;;;5043746;28;20043;-77
2023/08/05 10:38:22;;;;;;;0.20;0.20;;;21.10;99.90;;;;;;5046682;28;20044;-77
2023/08/05 10:41:00;;;;;;;0.65;0.65;;;21.20;99.90;;;;;;5027890;28;20028;-77
2023/08/05 10:43:27;;;;;;;0.82;0.63;;;21.30;99.90;;;;;;5024897;28;20048;-77
2023/08/05 10:45:54;;;;;;;0.30;0.30;;;21.50;99.90;;;;;;5022973;28;20076;-77
2023/08/05 10:48:38;;;;;;;0.30;0.30;;;21.80;99.90;;;;;;5029274;28;20218;-77
2023/08/05 10:51:18;;;;;;;0.20;0.20;;;21.90;99.90;;;;;;5037059;28;20075;-78
2023/08/05 10:53:58;;;;;;;0.35;0.35;;;22.00;99.90;;;;;;5066517;28;20458;-78
2023/08/05 10:56:34;;;;;;;0.20;0.20;;;22.20;99.90;;;;;;5062108;28;20089;-79
2023/08/05 10:59:01;;;;;;;4.95;0.50;;;22.40;99.90;;;;;;5033191;28;20091;-79
2023/08/05 11:01:53;;;;;;;0.38;0.38;;;22.40;99.90;;;;;;5019574;28;20075;-77
2023/08/05 11:04:29;;;;;;;7.38;0.90;;;22.30;99.90;;;;;;5045544;28;20032;-74
2023/08/05 11:06:56;;;;;;;;;;;22.30;99.90;;;;;;5052231;28;20483;-74
2023/08/05 11:09:27;;;;;;;0.10;0.10;;;22.30;99.90;;;;;;5048048;28;20361;-73
2023/08/05 11:11:52;;;;;;;0.32;0.22;;;22.30;99.90;;;;;;5047202;28;20129;-74
2023/08/05 11:14:19;;;;;;;0.35;0.35;;;22.50;99.90;;;;;;5044438;28;20036;-74
2023/08/05 11:16:45;;;;;;;0.20;0.20;;;22.80;99.90;;;;;;5034048;28;20043;-74
2023/08/05 11:19:12;;;;;;;0.22;0.22;;;23.00;99.90;;;;;;5042391;28;20056;-74
2023/08/05 11:21:43;;;;;;;0.17;0.17;;;23.00;99.90;;;;;;5045306;28;20044;-74
2023/08/05 11:24:19;;;;;;;0.40;0.40;;;22.90;99.90;;;;;;5039073;28;20044;-75
2023/08/05 11:26:46;;;;;;;;;;;22.90;99.90;;;;;;5034650;28;20048;-75
2023/08/05 11:29:14;;;;;;;0.22;0.22;;;22.80;99.90;;;;;;5026708;28;20286;-75
2023/08/05 11:31:52;;;;;;;0.30;0.30;;;22.80;99.90;;;;;;5041045;28;20048;-74
2023/08/05 11:34:24;;;;;;;0.30;0.30;;;22.80;99.90;;;;;;5043051;28;20441;-75
2023/08/05 11:36:56;;;;;;;0.20;0.20;;;22.80;99.90;;;;;;5042189;28;20428;-74
2023/08/05 11:39:26;;;;;;;0.20;0.20;;;22.80;99.90;;;;;;5054215;28;20047;-74
2023/08/05 11:41:52;;;;;;;0.32;0.32;;;23.00;99.90;;;;;;5039393;28;20055;-74
2023/08/05 11:44:19;;;;;;;0.43;0.43;;;23.10;99.90;;;;;;5040835;28;20040;-75
2023/08/05 11:46:46;;;;;;;0.20;0.20;;;23.20;99.90;;;;;;5040963;28;20126;-75
2023/08/05 11:49:13;;;;;;;0.30;0.30;;;23.20;99.90;;;;;;5037286;28;20053;-75
2023/08/05 11:51:52;;;;;;;0.20;0.20;;;23.10;99.90;;;;;;5029071;28;20036;-75
2023/08/05 11:54:32;;;;;;;0.60;0.60;;;23.10;99.90;;;;;;5043092;28;20036;-75
2023/08/05 11:56:58;;;;;;;0.40;0.30;;;23.20;99.90;;;;;;5041984;28;20048;-75
2023/08/05 11:59:43;;;;;;;0.30;0.30;;;23.20;99.90;;;;;;5037782;28;20078;-74
2023/08/05 12:02:13;;;;;;;0.30;0.30;;;23.20;99.90;;;;;;5047557;28;20102;-74
2023/08/05 12:04:49;;;;;;;0.60;0.60;;;23.10;99.90;;;;;;5040989;28;20051;-75
2023/08/05 12:07:20;;;;;;;0.32;0.32;;;23.00;99.90;;;;;;5042677;28;20082;-75
2023/08/05 12:10:07;;;;;;;0.40;0.40;;;23.00;99.90;;;;;;5043506;28;20044;-75
2023/08/05 12:12:33;;;;;;;0.10;0.10;;;22.90;99.90;;;;;;5043466;28;20044;-75
2023/08/05 12:15:24;;;;;;;0.80;0.65;;;22.60;99.90;;;;;;5041611;28;20039;-73
2023/08/05 12:17:55;;;;;;;0.25;0.25;;;22.40;99.90;;;;;;5059151;28;20033;-74
2023/08/05 12:20:28;;;;;;;2.17;0.55;;;22.30;99.90;;;;;;5039958;28;20052;-74
2023/08/05 12:22:55;;;;;;;0.47;0.47;;;22.30;99.90;;;;;;5044025;28;20483;-75
2023/08/05 12:25:22;;;;;;;0.63;0.63;;;22.30;99.90;;;;;;5040000;28;20557;-74
2023/08/05 12:27:48;;;;;;;0.20;0.20;;;22.30;99.90;;;;;;5041553;28;20048;-73
2023/08/05 12:30:15;;;;;;;1.00;0.90;;;22.40;99.90;;;;;;4998523;28;20101;-74
2023/08/05 12:32:41;;;;;;;1.02;1.02;;;22.40;99.90;;;;;;5024825;28;20155;-74
2023/08/05 12:35:08;;;;;;;0.15;0.15;;;22.30;99.90;;;;;;5024893;28;20576;-74
2023/08/05 12:37:36;;;;;;;0.32;0.30;;;22.10;99.90;;;;;;5037047;28;20045;-75
2023/08/05 12:40:02;;;;;;;0.80;0.77;;;21.90;99.90;;;;;;5038995;28;20045;-74
2023/08/05 12:42:28;;;;;;;0.20;0.20;;;21.60;99.90;;;;;;5030018;28;20474;-74
2023/08/05 12:44:55;;;;;;;1.10;0.40;;;21.40;99.90;;;;;;5038727;28;20044;-74
2023/08/05 12:47:21;;;;;;;0.30;0.30;;;21.30;99.90;;;;;;5041420;28;20037;-74
2023/08/05 12:49:47;;;;;;;0.30;0.30;;;21.10;99.90;;;;;;5036793;28;20139;-74
2023/08/05 12:52:13;;;;;;;0.20;0.20;;;21.00;99.90;;;;;;5042135;28;20113;-74
2023/08/05 12:54:39;;;;;;;0.80;0.30;;;20.90;99.90;;;;;;5036241;28;20127;-74
2023/08/05 12:57:05;;;;;;;0.75;0.65;;;20.80;99.90;;;;;;5054348;28;20182;-73
2023/08/05 12:59:31;;;;;;;0.30;0.30;;;20.70;99.90;;;;;;5023068;28;20306;-75